createdAt,value
2023-03-23T15:57:59.194Z,99261.66
2023-03-23T16:00:29.549Z,99271.50
2023-03-23T16:03:02.320Z,99272.63
2023-03-23T16:05:31.142Z,99276.26
2023-03-23T16:08:00.223Z,99274.59
2023-03-23T16:10:30.507Z,99269.26
2023-03-23T16:12:59.409Z,99272.90
2023-03-23T16:15:28.276Z,99271.16
2023-03-23T16:17:58.031Z,99273.05
2023-03-23T16:20:30.028Z,99272.75
2023-03-23T16:22:58.426Z,99277.20
2023-03-23T16:25:27.406Z,99281.76
2023-03-23T16:27:55.907Z,99282.12
2023-03-23T16:30:27.428Z,99289.98
2023-03-23T16:32:57.696Z,99288.05
2023-03-23T16:35:27.009Z,99287.86
2023-03-23T16:38:07.200Z,99278.00
2023-03-23T16:40:38.233Z,99280.40
2023-03-23T16:43:08.770Z,99283.45
2023-03-23T16:45:43.272Z,99283.98
2023-03-23T16:48:16.382Z,99283.25
2023-03-23T16:50:45.992Z,99282.98
2023-03-23T16:53:14.806Z,99282.17
2023-03-23T16:55:48.631Z,99284.72
2023-03-23T16:58:18.170Z,99286.38
2023-03-23T17:00:52.983Z,99284.01
2023-03-23T17:03:23.363Z,99293.80
2023-03-23T17:05:53.142Z,99299.33
2023-03-23T17:08:22.221Z,99301.59
2023-03-23T17:10:51.051Z,99300.19
2023-03-23T17:13:20.163Z,99296.08
2023-03-23T17:15:53.704Z,99305.74
2023-03-23T17:18:23.554Z,99309.34
2023-03-23T17:20:56.566Z,99304.89
2023-03-23T17:23:25.616Z,99303.46
2023-03-23T17:25:54.402Z,99306.87
2023-03-23T17:28:23.390Z,99313.31
2023-03-23T17:30:53.570Z,99318.09
2023-03-23T17:33:22.338Z,99324.84
2023-03-23T17:35:52.287Z,99328.29
2023-03-23T17:38:21.582Z,99335.13
2023-03-23T17:40:57.718Z,99339.53
2023-03-23T17:43:26.327Z,99336.70
2023-03-23T17:45:55.451Z,99329.92
2023-03-23T17:48:27.750Z,99328.74
2023-03-23T17:51:00.153Z,99327.96
2023-03-23T17:53:31.894Z,99322.73
2023-03-23T17:56:01.222Z,99317.89
2023-03-23T17:58:30.337Z,99315.06
2023-03-23T18:01:01.231Z,99322.81
2023-03-23T18:03:31.643Z,99329.12
2023-03-23T18:06:10.227Z,99332.30
2023-03-23T18:08:40.398Z,99335.76
2023-03-23T18:11:11.974Z,99338.25
2023-03-23T18:13:43.140Z,99339.17
2023-03-23T18:16:13.484Z,99341.73
2023-03-23T18:18:47.563Z,99341.63
2023-03-23T18:21:17.263Z,99345.16
2023-03-23T18:23:56.870Z,99346.23
2023-03-23T18:26:31.084Z,99348.23
2023-03-23T18:29:04.222Z,99347.08
2023-03-23T18:31:34.649Z,99349.89
2023-03-23T18:34:05.427Z,99344.32
2023-03-23T18:36:37.805Z,99345.88
2023-03-23T18:39:10.891Z,99348.64
2023-03-23T18:41:43.582Z,99346.25
2023-03-23T18:44:14.569Z,99348.80
2023-03-23T18:46:48.532Z,99354.16
2023-03-23T18:49:19.894Z,99359.58
2023-03-23T18:51:52.337Z,99366.45
2023-03-23T18:54:29.055Z,99370.55
2023-03-23T18:57:01.425Z,99372.89
2023-03-23T18:59:31.734Z,99380.11
2023-03-23T19:02:02.866Z,99377.05
2023-03-23T19:04:35.344Z,99369.14
2023-03-23T19:07:09.545Z,99362.67
2023-03-23T19:09:44.916Z,99353.23
2023-03-23T19:12:16.133Z,99341.08
2023-03-23T19:14:49.187Z,99335.81
2023-03-23T19:17:20.775Z,99333.44
2023-03-23T19:19:50.736Z,99330.71
2023-03-23T19:22:22.810Z,99337.05
2023-03-23T19:24:53.140Z,99344.27
2023-03-23T19:27:34.027Z,99341.15
2023-03-23T19:30:05.341Z,99339.89
2023-03-23T19:32:37.091Z,99335.54
2023-03-23T19:35:08.070Z,99335.37
2023-03-23T19:37:44.395Z,99341.72
2023-03-23T19:40:35.481Z,99350.79
2023-03-23T19:43:06.986Z,99346.36
2023-03-23T19:45:37.412Z,99349.06
2023-03-23T19:48:10.082Z,99354.43
2023-03-23T19:50:44.585Z,99359.02
2023-03-23T19:53:21.448Z,99368.13
2023-03-23T19:55:58.596Z,99372.30
2023-03-23T19:58:29.634Z,99375.05
2023-03-23T20:01:02.144Z,99383.20
2023-03-23T20:03:33.246Z,99386.51
2023-03-23T20:06:12.031Z,99388.77
2023-03-23T20:08:45.454Z,99394.54
2023-03-23T20:11:21.658Z,99394.02
2023-03-23T20:13:56.659Z,99394.89
2023-03-23T20:16:31.816Z,99398.23
2023-03-23T20:19:07.331Z,99397.20
2023-03-23T20:21:38.709Z,99395.45
2023-03-23T20:24:14.978Z,99397.14
2023-03-23T20:26:47.875Z,99397.27
2023-03-23T20:29:18.425Z,99395.34
2023-03-23T20:31:49.133Z,99400.30
2023-03-23T20:34:31.790Z,99401.88
2023-03-23T20:37:05.678Z,99407.20
2023-03-23T20:39:37.626Z,99410.45
2023-03-23T20:42:08.339Z,99410.89
2023-03-23T20:44:40.336Z,99412.58
2023-03-23T20:47:12.627Z,99416.56
2023-03-23T20:49:52.649Z,99419.89
2023-03-23T20:52:26.327Z,99423.14
2023-03-23T20:55:06.170Z,99420.81
2023-03-23T20:57:41.254Z,99422.23
2023-03-23T21:00:18.045Z,99419.48
2023-03-23T21:02:54.817Z,99417.77
2023-03-23T21:05:25.236Z,99415.55
2023-03-23T21:07:56.343Z,99417.69
2023-03-23T21:10:28.403Z,99419.55
2023-03-23T21:12:59.732Z,99418.10
2023-03-23T21:15:33.894Z,99414.13
2023-03-23T21:18:07.055Z,99419.34
2023-03-23T21:20:38.993Z,99420.05
2023-03-23T21:23:08.832Z,99426.67
2023-03-23T21:25:45.470Z,99428.77
2023-03-23T21:28:15.820Z,99427.58
2023-03-23T21:30:46.190Z,99432.00
2023-03-23T21:33:16.247Z,99431.46
2023-03-23T21:35:44.837Z,99436.16
2023-03-23T21:38:20.206Z,99432.61
2023-03-23T21:40:50.656Z,99431.91
2023-03-23T21:43:20.152Z,99433.33
2023-03-23T21:45:48.846Z,99426.52
2023-03-23T21:48:17.966Z,99430.45
2023-03-23T21:50:47.002Z,99430.75
2023-03-23T21:53:19.107Z,99431.77
2023-03-23T21:55:52.960Z,99425.84
2023-03-23T21:58:24.553Z,99416.52
2023-03-23T22:00:55.250Z,99414.06
2023-03-23T22:03:25.263Z,99414.13
2023-03-23T22:05:55.083Z,99416.55
2023-03-23T22:08:29.690Z,99412.52
2023-03-23T22:11:07.184Z,99410.70
2023-03-23T22:13:38.365Z,99416.50
2023-03-23T22:16:10.851Z,99413.83
2023-03-23T22:18:40.705Z,99422.83
2023-03-23T22:21:11.260Z,99427.84
2023-03-23T22:23:43.015Z,99426.07
2023-03-23T22:26:13.120Z,99430.19
2023-03-23T22:28:43.757Z,99429.46
2023-03-23T22:31:18.849Z,99426.82
2023-03-23T22:33:49.303Z,99423.94
2023-03-23T22:36:18.637Z,99427.54
2023-03-23T22:38:49.852Z,99422.56
2023-03-23T22:41:21.698Z,99424.68
2023-03-23T22:43:50.813Z,99423.42
2023-03-23T22:46:21.008Z,99424.77
2023-03-23T22:48:49.690Z,99425.40
2023-03-23T22:51:20.312Z,99422.23
2023-03-23T22:53:50.112Z,99422.85
2023-03-23T22:56:19.044Z,99425.73
2023-03-23T22:58:47.898Z,99422.53
2023-03-23T23:01:21.933Z,99422.68
2023-03-23T23:03:51.099Z,99424.95
2023-03-23T23:06:21.644Z,99423.08
2023-03-23T23:08:50.426Z,99422.69
2023-03-23T23:11:45.422Z,99425.71
2023-03-23T23:14:14.039Z,99424.45
2023-03-23T23:16:44.020Z,99424.41
2023-03-23T23:19:13.608Z,99424.25
2023-03-23T23:21:42.196Z,99426.30
2023-03-23T23:24:10.755Z,99422.76
2023-03-23T23:26:40.553Z,99423.75
2023-03-23T23:29:09.739Z,99427.77
2023-03-23T23:31:38.837Z,99422.94
2023-03-23T23:34:07.986Z,99425.67
2023-03-23T23:36:38.625Z,99428.74
2023-03-23T23:39:08.325Z,99426.65
2023-03-23T23:41:37.703Z,99423.23
2023-03-23T23:44:09.297Z,99416.85
2023-03-23T23:46:38.253Z,99416.02
2023-03-23T23:49:07.526Z,99418.54
2023-03-23T23:51:37.980Z,99417.23
2023-03-23T23:54:06.783Z,99414.02
2023-03-23T23:56:35.566Z,99404.12
2023-03-23T23:59:06.128Z,99406.02
